sensor_id;sensor_type;location;lat;lon;timestamp;pressure;altitude;pressure_sealevel;temperature;humidity
62942;BME280;49042;47.318;19.874;2023-02-02T00:01:48;100126.94;;;2.05;100.00
62942;BME280;49042;47.318;19.874;2023-02-02T00:04:50;100124.91;;;1.99;100.00
62942;BME280;49042;47.318;19.874;2023-02-02T00:07:51;100127.00;;;1.91;100.00
62942;BME280;49042;47.318;19.874;2023-02-02T00:10:53;100123.78;;;1.80;100.00
62942;BME280;49042;47.318;19.874;2023-02-02T00:13:55;100113.41;;;1.79;100.00
62942;BME280;49042;47.318;19.874;2023-02-02T00:16:57;100113.41;;;1.79;100.00
62942;BME280;49042;47.318;19.874;2023-02-02T00:19:59;100098.28;;;1.84;100.00
62942;BME280;49042;47.318;19.874;2023-02-02T00:23:01;100104.38;;;1.86;100.00
62942;BME280;49042;47.318;19.874;2023-02-02T00:26:03;100096.25;;;1.93;100.00
62942;BME280;49042;47.318;19.874;2023-02-02T00:29:06;100095.63;;;1.97;100.00
62942;BME280;49042;47.318;19.874;2023-02-02T00:32:08;100095.94;;;2.17;100.00
62942;BME280;49042;47.318;19.874;2023-02-02T00:35:10;100099.03;;;2.27;100.00
62942;BME280;49042;47.318;19.874;2023-02-02T00:38:11;100093.50;;;2.49;100.00
62942;BME280;49042;47.318;19.874;2023-02-02T00:41:13;100090.63;;;2.44;100.00
62942;BME280;49042;47.318;19.874;2023-02-02T00:44:15;100091.25;;;2.55;100.00
62942;BME280;49042;47.318;19.874;2023-02-02T00:47:36;100083.81;;;2.60;100.00
62942;BME280;49042;47.318;19.874;2023-02-02T00:50:37;100081.50;;;2.65;100.00
62942;BME280;49042;47.318;19.874;2023-02-02T00:53:39;100068.53;;;2.63;100.00
62942;BME280;49042;47.318;19.874;2023-02-02T00:56:41;100063.91;;;2.73;100.00
62942;BME280;49042;47.318;19.874;2023-02-02T00:59:43;100063.84;;;2.71;100.00
62942;BME280;49042;47.318;19.874;2023-02-02T01:02:45;100056.00;;;2.70;100.00
62942;BME280;49042;47.318;19.874;2023-02-02T01:05:47;100043.13;;;2.70;100.00
62942;BME280;49042;47.318;19.874;2023-02-02T01:08:50;100037.19;;;2.71;100.00
62942;BME280;49042;47.318;19.874;2023-02-02T01:11:52;100012.84;;;2.65;100.00
62942;BME280;49042;47.318;19.874;2023-02-02T01:14:54;100018.69;;;2.78;100.00
62942;BME280;49042;47.318;19.874;2023-02-02T01:17:56;100015.06;;;2.74;100.00
62942;BME280;49042;47.318;19.874;2023-02-02T01:21:03;100033.81;;;2.72;100.00
62942;BME280;49042;47.318;19.874;2023-02-02T01:24:05;100032.66;;;2.66;100.00
62942;BME280;49042;47.318;19.874;2023-02-02T01:27:07;100040.81;;;2.74;100.00
62942;BME280;49042;47.318;19.874;2023-02-02T01:30:09;100049.09;;;2.69;100.00
62942;BME280;49042;47.318;19.874;2023-02-02T01:33:11;100025.56;;;2.62;100.00
62942;BME280;49042;47.318;19.874;2023-02-02T01:36:16;100024.75;;;2.63;100.00
62942;BME280;49042;47.318;19.874;2023-02-02T01:39:18;100024.03;;;2.66;100.00
62942;BME280;49042;47.318;19.874;2023-02-02T01:42:21;100017.63;;;2.74;100.00
62942;BME280;49042;47.318;19.874;2023-02-02T01:45:29;100019.16;;;2.71;100.00
62942;BME280;49042;47.318;19.874;2023-02-02T01:48:31;100031.47;;;2.76;100.00
62942;BME280;49042;47.318;19.874;2023-02-02T01:54:56;100042.09;;;2.98;97.04
62942;BME280;49042;47.318;19.874;2023-02-02T01:58:34;100035.34;;;3.00;96.56
62942;BME280;49042;47.318;19.874;2023-02-02T02:01:36;100036.87;;;2.96;96.34
62942;BME280;49042;47.318;19.874;2023-02-02T02:04:39;100030.53;;;3.06;95.15
62942;BME280;49042;47.318;19.874;2023-02-02T02:07:43;100036.47;;;3.05;95.12
62942;BME280;49042;47.318;19.874;2023-02-02T02:10:46;100014.09;;;3.04;95.16
62942;BME280;49042;47.318;19.874;2023-02-02T02:13:49;100031.97;;;3.01;95.29
62942;BME280;49042;47.318;19.874;2023-02-02T02:18:03;100026.81;;;3.01;95.55
62942;BME280;49042;47.318;19.874;2023-02-02T02:35:33;100004.47;;;2.85;97.07
62942;BME280;49042;47.318;19.874;2023-02-02T02:38:40;100004.84;;;2.76;98.41
62942;BME280;49042;47.318;19.874;2023-02-02T02:41:49;100010.88;;;2.76;98.42
62942;BME280;49042;47.318;19.874;2023-02-02T02:44:54;100003.97;;;2.75;98.24
62942;BME280;49042;47.318;19.874;2023-02-02T02:47:56;100002.03;;;2.71;98.21
62942;BME280;49042;47.318;19.874;2023-02-02T02:51:38;99991.44;;;2.66;98.24
62942;BME280;49042;47.318;19.874;2023-02-02T02:54:46;100005.12;;;2.65;97.56
62942;BME280;49042;47.318;19.874;2023-02-02T03:01:28;100014.13;;;2.57;98.04
62942;BME280;49042;47.318;19.874;2023-02-02T03:04:43;100011.62;;;2.59;98.29
62942;BME280;49042;47.318;19.874;2023-02-02T03:07:52;100022.47;;;2.53;99.49
62942;BME280;49042;47.318;19.874;2023-02-02T03:10:58;100024.59;;;2.45;99.98
62942;BME280;49042;47.318;19.874;2023-02-02T03:14:03;100020.50;;;2.33;100.00
62942;BME280;49042;47.318;19.874;2023-02-02T03:17:05;100027.00;;;2.27;100.00
62942;BME280;49042;47.318;19.874;2023-02-02T03:20:07;100022.66;;;2.26;100.00
62942;BME280;49042;47.318;19.874;2023-02-02T03:23:09;100024.78;;;2.18;100.00
62942;BME280;49042;47.318;19.874;2023-02-02T03:26:11;100026.28;;;2.14;100.00
62942;BME280;49042;47.318;19.874;2023-02-02T03:29:13;100027.00;;;2.11;100.00
62942;BME280;49042;47.318;19.874;2023-02-02T03:32:15;100008.81;;;2.08;100.00
62942;BME280;49042;47.318;19.874;2023-02-02T03:35:17;100012.06;;;2.06;100.00
62942;BME280;49042;47.318;19.874;2023-02-02T03:38:20;100025.66;;;2.03;100.00
62942;BME280;49042;47.318;19.874;2023-02-02T03:41:22;100022.63;;;1.95;100.00
62942;BME280;49042;47.318;19.874;2023-02-02T03:44:24;100029.53;;;1.96;100.00
62942;BME280;49042;47.318;19.874;2023-02-02T03:47:29;100025.28;;;1.97;100.00
62942;BME280;49042;47.318;19.874;2023-02-02T03:50:31;100045.88;;;1.97;100.00
62942;BME280;49042;47.318;19.874;2023-02-02T03:53:33;100041.50;;;1.96;100.00
62942;BME280;49042;47.318;19.874;2023-02-02T03:56:35;100042.31;;;1.95;100.00
62942;BME280;49042;47.318;19.874;2023-02-02T03:59:37;100043.13;;;1.94;100.00
62942;BME280;49042;47.318;19.874;2023-02-02T04:02:39;100043.19;;;1.95;100.00
62942;BME280;49042;47.318;19.874;2023-02-02T04:05:40;100043.19;;;1.95;100.00
62942;BME280;49042;47.318;19.874;2023-02-02T04:08:42;100045.69;;;1.94;100.00
62942;BME280;49042;47.318;19.874;2023-02-02T04:11:44;100040.56;;;1.94;100.00
62942;BME280;49042;47.318;19.874;2023-02-02T04:14:46;100040.63;;;1.95;100.00
62942;BME280;49042;47.318;19.874;2023-02-02T04:17:47;100033.44;;;1.89;100.00
62942;BME280;49042;47.318;19.874;2023-02-02T04:20:49;100051.53;;;1.91;100.00
62942;BME280;49042;47.318;19.874;2023-02-02T04:23:51;100051.44;;;1.89;100.00
62942;BME280;49042;47.318;19.874;2023-02-02T04:26:52;100057.97;;;1.84;100.00
62942;BME280;49042;47.318;19.874;2023-02-02T04:29:54;100054.53;;;1.84;100.00
62942;BME280;49042;47.318;19.874;2023-02-02T04:32:56;100035.38;;;1.78;100.00
62942;BME280;49042;47.318;19.874;2023-02-02T04:35:58;100026.69;;;1.76;100.00
62942;BME280;49042;47.318;19.874;2023-02-02T04:38:59;100030.75;;;1.73;100.00
62942;BME280;49042;47.318;19.874;2023-02-02T04:42:01;100031.44;;;1.70;100.00
62942;BME280;49042;47.318;19.874;2023-02-02T04:45:04;100031.06;;;1.64;100.00
62942;BME280;49042;47.318;19.874;2023-02-02T04:48:07;100033.56;;;1.62;100.00
62942;BME280;49042;47.318;19.874;2023-02-02T04:51:12;100034.53;;;1.64;100.00
62942;BME280;49042;47.318;19.874;2023-02-02T04:54:15;100029.81;;;1.57;100.00
62942;BME280;49042;47.318;19.874;2023-02-02T04:57:17;100040.50;;;1.49;100.00
62942;BME280;49042;47.318;19.874;2023-02-02T05:00:19;100058.69;;;1.53;100.00
62942;BME280;49042;47.318;19.874;2023-02-02T05:03:21;100072.25;;;1.50;100.00
62942;BME280;49042;47.318;19.874;2023-02-02T05:06:23;100082.22;;;1.45;100.00
62942;BME280;49042;47.318;19.874;2023-02-02T05:09:25;100087.59;;;1.35;100.00
62942;BME280;49042;47.318;19.874;2023-02-02T05:12:27;100086.31;;;1.28;100.00
62942;BME280;49042;47.318;19.874;2023-02-02T05:15:28;100078.53;;;1.26;100.00
62942;BME280;49042;47.318;19.874;2023-02-02T05:18:30;100091.19;;;1.23;100.00
62942;BME280;49042;47.318;19.874;2023-02-02T05:21:32;100085.63;;;1.17;100.00
62942;BME280;49042;47.318;19.874;2023-02-02T05:24:34;100088.91;;;1.14;100.00
62942;BME280;49042;47.318;19.874;2023-02-02T05:27:35;100091.28;;;1.11;100.00
62942;BME280;49042;47.318;19.874;2023-02-02T05:30:38;100093.47;;;1.05;100.00
62942;BME280;49042;47.318;19.874;2023-02-02T05:33:41;100087.13;;;1.00;100.00
62942;BME280;49042;47.318;19.874;2023-02-02T05:36:43;100085.38;;;0.99;100.00
62942;BME280;49042;47.318;19.874;2023-02-02T05:39:44;100092.84;;;0.95;100.00
62942;BME280;49042;47.318;19.874;2023-02-02T05:42:47;100088.41;;;0.93;100.00
62942;BME280;49042;47.318;19.874;2023-02-02T05:45:51;100095.91;;;0.90;100.00
62942;BME280;49042;47.318;19.874;2023-02-02T05:48:52;100093.34;;;0.90;100.00
62942;BME280;49042;47.318;19.874;2023-02-02T05:51:56;100096.62;;;0.87;100.00
62942;BME280;49042;47.318;19.874;2023-02-02T05:54:59;100092.97;;;0.83;100.00
62942;BME280;49042;47.318;19.874;2023-02-02T05:58:01;100095.81;;;0.74;100.00
62942;BME280;49042;47.318;19.874;2023-02-02T06:01:03;100092.16;;;0.71;100.00
62942;BME280;49042;47.318;19.874;2023-02-02T06:04:05;100105.09;;;0.72;100.00
62942;BME280;49042;47.318;19.874;2023-02-02T06:07:07;100112.91;;;0.74;100.00
62942;BME280;49042;47.318;19.874;2023-02-02T06:10:10;100113.59;;;0.71;100.00
62942;BME280;49042;47.318;19.874;2023-02-02T06:13:12;100108.44;;;0.71;100.00
62942;BME280;49042;47.318;19.874;2023-02-02T06:16:14;100116.75;;;0.67;100.00
62942;BME280;49042;47.318;19.874;2023-02-02T06:19:17;100124.53;;;0.69;100.00
62942;BME280;49042;47.318;19.874;2023-02-02T06:22:21;100124.22;;;0.64;100.00
62942;BME280;49042;47.318;19.874;2023-02-02T06:25:23;100122.47;;;0.63;100.00
62942;BME280;49042;47.318;19.874;2023-02-02T06:28:25;100125.03;;;0.63;100.00
62942;BME280;49042;47.318;19.874;2023-02-02T06:31:28;100121.59;;;0.76;100.00
62942;BME280;49042;47.318;19.874;2023-02-02T06:34:30;100122.09;;;0.70;100.00
62942;BME280;49042;47.318;19.874;2023-02-02T06:37:33;100116.66;;;0.79;100.00
62942;BME280;49042;47.318;19.874;2023-02-02T06:40:35;100122.69;;;0.80;100.00
62942;BME280;49042;47.318;19.874;2023-02-02T06:43:37;100123.66;;;0.82;100.00
62942;BME280;49042;47.318;19.874;2023-02-02T06:46:39;100122.09;;;0.84;100.00
62942;BME280;49042;47.318;19.874;2023-02-02T06:49:42;100125.06;;;0.90;100.00
62942;BME280;49042;47.318;19.874;2023-02-02T06:52:48;100134.94;;;0.98;100.00
62942;BME280;49042;47.318;19.874;2023-02-02T06:56:00;100133.16;;;0.96;100.00
62942;BME280;49042;47.318;19.874;2023-02-02T06:59:02;100143.03;;;1.04;100.00
62942;BME280;49042;47.318;19.874;2023-02-02T07:02:04;100154.53;;;1.09;100.00
62942;BME280;49042;47.318;19.874;2023-02-02T07:05:06;100168.06;;;1.20;100.00
62942;BME280;49042;47.318;19.874;2023-02-02T07:08:08;100174.94;;;1.48;100.00
62942;BME280;49042;47.318;19.874;2023-02-02T07:11:10;100182.38;;;1.44;100.00
62942;BME280;49042;47.318;19.874;2023-02-02T07:14:16;100187.91;;;1.50;100.00
62942;BME280;49042;47.318;19.874;2023-02-02T07:17:18;100194.91;;;1.80;100.00
62942;BME280;49042;47.318;19.874;2023-02-02T07:20:21;100203.19;;;1.89;100.00
62942;BME280;49042;47.318;19.874;2023-02-02T07:23:23;100212.28;;;1.98;100.00
62942;BME280;49042;47.318;19.874;2023-02-02T07:26:24;100226.66;;;2.52;99.48
62942;BME280;49042;47.318;19.874;2023-02-02T07:29:28;100243.06;;;2.98;96.70
62942;BME280;49042;47.318;19.874;2023-02-02T07:32:30;100237.72;;;3.71;90.95
62942;BME280;49042;47.318;19.874;2023-02-02T07:35:33;100243.09;;;5.08;83.42
62942;BME280;49042;47.318;19.874;2023-02-02T07:38:35;100244.56;;;5.95;75.98
62942;BME280;49042;47.318;19.874;2023-02-02T07:41:37;100231.62;;;5.95;74.11
62942;BME280;49042;47.318;19.874;2023-02-02T07:44:39;100222.34;;;6.18;73.07
62942;BME280;49042;47.318;19.874;2023-02-02T07:47:41;100214.59;;;7.00;68.47
62942;BME280;49042;47.318;19.874;2023-02-02T07:50:48;100204.50;;;7.72;64.29
62942;BME280;49042;47.318;19.874;2023-02-02T07:53:52;100208.97;;;8.47;59.18
62942;BME280;49042;47.318;19.874;2023-02-02T07:56:55;100210.09;;;8.78;57.09
62942;BME280;49042;47.318;19.874;2023-02-02T07:59:56;100205.38;;;7.73;61.26
62942;BME280;49042;47.318;19.874;2023-02-02T08:02:58;100209.16;;;9.03;55.93
62942;BME280;49042;47.318;19.874;2023-02-02T08:06:00;100219.97;;;9.71;54.12
62942;BME280;49042;47.318;19.874;2023-02-02T08:09:08;100219.09;;;6.62;66.09
62942;BME280;49042;47.318;19.874;2023-02-02T08:12:10;100218.56;;;4.83;76.95
62942;BME280;49042;47.318;19.874;2023-02-02T08:15:12;100219.22;;;4.12;81.79
62942;BME280;49042;47.318;19.874;2023-02-02T08:18:15;100212.00;;;3.89;87.13
62942;BME280;49042;47.318;19.874;2023-02-02T08:21:18;100214.22;;;3.66;87.71
62942;BME280;49042;47.318;19.874;2023-02-02T08:24:20;100199.56;;;3.50;87.67
62942;BME280;49042;47.318;19.874;2023-02-02T08:27:22;100219.84;;;3.43;88.72
62942;BME280;49042;47.318;19.874;2023-02-02T08:30:24;100219.84;;;3.43;89.57
62942;BME280;49042;47.318;19.874;2023-02-02T08:33:26;100216.59;;;3.46;89.15
62942;BME280;49042;47.318;19.874;2023-02-02T08:36:29;100222.03;;;3.68;89.89
62942;BME280;49042;47.318;19.874;2023-02-02T08:39:31;100239.63;;;3.75;88.76
62942;BME280;49042;47.318;19.874;2023-02-02T08:42:32;100240.22;;;3.86;85.33
62942;BME280;49042;47.318;19.874;2023-02-02T08:45:35;100251.44;;;4.35;84.03
62942;BME280;49042;47.318;19.874;2023-02-02T08:48:57;100243.50;;;7.97;61.14
62942;BME280;49042;47.318;19.874;2023-02-02T08:51:59;100247.81;;;10.62;51.08
62942;BME280;49042;47.318;19.874;2023-02-02T08:55:01;100247.66;;;10.89;49.93
62942;BME280;49042;47.318;19.874;2023-02-02T08:58:03;100235.19;;;11.49;47.18
62942;BME280;49042;47.318;19.874;2023-02-02T09:04:14;100245.00;;;11.59;45.81
62942;BME280;49042;47.318;19.874;2023-02-02T09:07:19;100228.56;;;11.62;45.56
62942;BME280;49042;47.318;19.874;2023-02-02T09:10:21;100243.97;;;12.30;44.08
62942;BME280;49042;47.318;19.874;2023-02-02T09:13:23;100243.78;;;11.82;44.52
62942;BME280;49042;47.318;19.874;2023-02-02T09:16:26;100227.09;;;12.59;43.36
62942;BME280;49042;47.318;19.874;2023-02-02T09:19:28;100228.16;;;11.44;45.53
62942;BME280;49042;47.318;19.874;2023-02-02T09:22:30;100218.84;;;11.96;42.75
62942;BME280;49042;47.318;19.874;2023-02-02T09:25:33;100221.38;;;11.53;42.28
62942;BME280;49042;47.318;19.874;2023-02-02T09:28:35;100223.94;;;11.14;43.04
62942;BME280;49042;47.318;19.874;2023-02-02T09:31:39;100227.91;;;11.72;45.05
62942;BME280;49042;47.318;19.874;2023-02-02T09:34:42;100242.50;;;9.98;48.09
62942;BME280;49042;47.318;19.874;2023-02-02T09:37:44;100246.94;;;9.45;48.60
62942;BME280;49042;47.318;19.874;2023-02-02T09:40:46;100248.44;;;8.37;51.64
62942;BME280;49042;47.318;19.874;2023-02-02T09:47:36;100258.94;;;7.70;53.64
62942;BME280;49042;47.318;19.874;2023-02-02T09:50:57;100257.00;;;7.65;56.67
62942;BME280;49042;47.318;19.874;2023-02-02T09:54:15;100259.41;;;7.60;56.57
62942;BME280;49042;47.318;19.874;2023-02-02T09:57:19;100261.53;;;7.70;59.35
62942;BME280;49042;47.318;19.874;2023-02-02T10:00:35;100255.66;;;7.32;60.00
62942;BME280;49042;47.318;19.874;2023-02-02T10:03:59;100273.84;;;6.90;59.73
62942;BME280;49042;47.318;19.874;2023-02-02T10:07:11;100267.81;;;6.70;60.92
62942;BME280;49042;47.318;19.874;2023-02-02T10:10:24;100264.91;;;6.43;62.45
62942;BME280;49042;47.318;19.874;2023-02-02T10:13:31;100264.50;;;6.34;63.68
62942;BME280;49042;47.318;19.874;2023-02-02T10:16:40;100256.69;;;6.52;63.27
62942;BME280;49042;47.318;19.874;2023-02-02T10:19:42;100264.06;;;6.43;64.02
62942;BME280;49042;47.318;19.874;2023-02-02T10:22:46;100249.50;;;6.47;66.21
62942;BME280;49042;47.318;19.874;2023-02-02T10:25:57;100258.56;;;6.37;64.94
62942;BME280;49042;47.318;19.874;2023-02-02T10:29:16;100257.69;;;6.36;65.08
62942;BME280;49042;47.318;19.874;2023-02-02T10:32:33;100249.63;;;5.92;63.95
62942;BME280;49042;47.318;19.874;2023-02-02T10:35:46;100249.22;;;6.02;66.10
62942;BME280;49042;47.318;19.874;2023-02-02T10:45:36;100238.97;;;5.67;66.68
62942;BME280;49042;47.318;19.874;2023-02-02T10:48:40;100254.94;;;5.76;65.55
62942;BME280;49042;47.318;19.874;2023-02-02T10:55:19;100242.12;;;5.98;64.64
62942;BME280;49042;47.318;19.874;2023-02-02T10:58:28;100239.78;;;5.84;65.33
62942;BME280;49042;47.318;19.874;2023-02-02T11:01:32;100238.91;;;5.84;66.91
62942;BME280;49042;47.318;19.874;2023-02-02T11:04:34;100250.00;;;5.63;63.40
62942;BME280;49042;47.318;19.874;2023-02-02T11:07:55;100248.22;;;5.80;66.69
62942;BME280;49042;47.318;19.874;2023-02-02T11:10:58;100234.59;;;6.03;65.30
62942;BME280;49042;47.318;19.874;2023-02-02T11:17:19;100227.75;;;6.23;61.93
62942;BME280;49042;47.318;19.874;2023-02-02T11:20:34;100228.72;;;6.25;63.25
62942;BME280;49042;47.318;19.874;2023-02-02T11:23:39;100219.66;;;6.35;62.89
62942;BME280;49042;47.318;19.874;2023-02-02T11:29:50;100209.63;;;6.63;63.54
62942;BME280;49042;47.318;19.874;2023-02-02T11:32:53;100205.63;;;6.50;61.85
62942;BME280;49042;47.318;19.874;2023-02-02T11:36:02;100213.41;;;6.50;62.99
62942;BME280;49042;47.318;19.874;2023-02-02T11:39:18;100215.97;;;6.30;62.98
62942;BME280;49042;47.318;19.874;2023-02-02T11:42:23;100211.88;;;6.15;62.80
62942;BME280;49042;47.318;19.874;2023-02-02T11:45:37;100201.72;;;6.40;62.73
62942;BME280;49042;47.318;19.874;2023-02-02T11:48:48;100212.03;;;6.38;61.91
62942;BME280;49042;47.318;19.874;2023-02-02T11:52:02;100188.84;;;6.41;62.41
62942;BME280;49042;47.318;19.874;2023-02-02T11:55:09;100204.09;;;6.55;63.13
62942;BME280;49042;47.318;19.874;2023-02-02T12:01:32;100201.41;;;6.32;62.50
62942;BME280;49042;47.318;19.874;2023-02-02T12:04:34;100207.66;;;6.57;62.68
62942;BME280;49042;47.318;19.874;2023-02-02T12:07:36;100202.41;;;6.56;62.03
62942;BME280;49042;47.318;19.874;2023-02-02T12:14:04;100215.06;;;6.29;62.56
62942;BME280;49042;47.318;19.874;2023-02-02T12:20:44;100228.41;;;5.81;64.04
62942;BME280;49042;47.318;19.874;2023-02-02T12:33:48;100219.50;;;6.12;64.93
62942;BME280;49042;47.318;19.874;2023-02-02T12:43:50;100234.84;;;6.27;64.37
62942;BME280;49042;47.318;19.874;2023-02-02T12:50:29;100223.06;;;6.14;61.42
62942;BME280;49042;47.318;19.874;2023-02-02T12:57:23;100228.66;;;6.24;63.38
62942;BME280;49042;47.318;19.874;2023-02-02T13:00:51;100227.53;;;6.18;64.28
62942;BME280;49042;47.318;19.874;2023-02-02T13:04:05;100232.66;;;5.98;64.40
62942;BME280;49042;47.318;19.874;2023-02-02T13:07:19;100228.62;;;5.85;64.26
62942;BME280;49042;47.318;19.874;2023-02-02T13:10:51;100219.59;;;5.77;63.71
62942;BME280;49042;47.318;19.874;2023-02-02T13:17:18;100234.09;;;5.55;66.29
62942;BME280;49042;47.318;19.874;2023-02-02T13:23:49;100233.19;;;5.73;66.93
62942;BME280;49042;47.318;19.874;2023-02-02T13:26:52;100232.38;;;6.10;64.44
62942;BME280;49042;47.318;19.874;2023-02-02T13:30:09;100241.69;;;6.45;63.94
62942;BME280;49042;47.318;19.874;2023-02-02T13:33:32;100244.81;;;6.58;62.16
62942;BME280;49042;47.318;19.874;2023-02-02T13:36:38;100240.34;;;6.75;61.06
62942;BME280;49042;47.318;19.874;2023-02-02T13:39:55;100246.81;;;6.63;60.46
62942;BME280;49042;47.318;19.874;2023-02-02T13:49:21;100248.97;;;6.34;62.07
62942;BME280;49042;47.318;19.874;2023-02-02T13:56:37;100255.69;;;5.55;65.29
62942;BME280;49042;47.318;19.874;2023-02-02T13:59:46;100260.16;;;5.58;66.20
62942;BME280;49042;47.318;19.874;2023-02-02T14:02:56;100261.19;;;5.62;65.16
62942;BME280;49042;47.318;19.874;2023-02-02T14:09:17;100263.47;;;5.74;64.81
62942;BME280;49042;47.318;19.874;2023-02-02T14:12:32;100271.06;;;5.71;65.98
62942;BME280;49042;47.318;19.874;2023-02-02T14:15:39;100261.16;;;5.80;65.62
62942;BME280;49042;47.318;19.874;2023-02-02T14:28:47;100252.78;;;5.31;68.88
62942;BME280;49042;47.318;19.874;2023-02-02T14:31:54;100262.94;;;5.09;70.55
62942;BME280;49042;47.318;19.874;2023-02-02T14:38:07;100257.91;;;4.94;71.04
62942;BME280;49042;47.318;19.874;2023-02-02T14:45:26;100246.69;;;4.77;71.88
62942;BME280;49042;47.318;19.874;2023-02-02T14:48:29;100253.06;;;4.67;73.67
62942;BME280;49042;47.318;19.874;2023-02-02T14:51:32;100256.31;;;4.63;73.71
62942;BME280;49042;47.318;19.874;2023-02-02T14:54:38;100256.63;;;4.52;74.40
62942;BME280;49042;47.318;19.874;2023-02-02T14:57:41;100267.50;;;4.46;75.65
62942;BME280;49042;47.318;19.874;2023-02-02T15:00:54;100261.59;;;4.49;74.02
62942;BME280;49042;47.318;19.874;2023-02-02T15:14:02;100251.59;;;4.22;77.01
62942;BME280;49042;47.318;19.874;2023-02-02T15:17:24;100253.06;;;4.16;77.07
62942;BME280;49042;47.318;19.874;2023-02-02T15:20:41;100261.84;;;4.20;76.74
62942;BME280;49042;47.318;19.874;2023-02-02T15:23:46;100268.72;;;4.20;75.71
62942;BME280;49042;47.318;19.874;2023-02-02T15:26:48;100270.75;;;4.10;77.09
62942;BME280;49042;47.318;19.874;2023-02-02T15:30:01;100275.94;;;4.10;77.55
62942;BME280;49042;47.318;19.874;2023-02-02T15:33:14;100279.34;;;4.09;76.70
62942;BME280;49042;47.318;19.874;2023-02-02T15:36:26;100293.19;;;4.11;76.45
62942;BME280;49042;47.318;19.874;2023-02-02T15:39:31;100294.94;;;3.95;78.08
62942;BME280;49042;47.318;19.874;2023-02-02T15:42:43;100295.19;;;4.00;77.42
62942;BME280;49042;47.318;19.874;2023-02-02T15:46:01;100297.87;;;4.02;77.81
62942;BME280;49042;47.318;19.874;2023-02-02T15:49:30;100298.66;;;4.01;77.86
62942;BME280;49042;47.318;19.874;2023-02-02T15:52:44;100311.56;;;4.01;77.34
62942;BME280;49042;47.318;19.874;2023-02-02T15:55:47;100316.22;;;3.91;78.22
62942;BME280;49042;47.318;19.874;2023-02-02T15:58:57;100321.38;;;3.91;78.41
62942;BME280;49042;47.318;19.874;2023-02-02T16:08:29;100341.84;;;3.73;78.55
62942;BME280;49042;47.318;19.874;2023-02-02T16:11:40;100333.06;;;3.69;78.99
62942;BME280;49042;47.318;19.874;2023-02-02T16:14:42;100335.47;;;3.66;78.94
62942;BME280;49042;47.318;19.874;2023-02-02T16:21:05;100343.13;;;3.49;80.07
62942;BME280;49042;47.318;19.874;2023-02-02T16:24:19;100339.47;;;3.46;80.30
62942;BME280;49042;47.318;19.874;2023-02-02T16:27:24;100347.62;;;3.53;79.48
62942;BME280;49042;47.318;19.874;2023-02-02T16:30:32;100335.72;;;3.56;79.03
62942;BME280;49042;47.318;19.874;2023-02-02T16:36:39;100328.25;;;3.45;80.12
62942;BME280;49042;47.318;19.874;2023-02-02T16:39:41;100323.81;;;3.58;79.32
62942;BME280;49042;47.318;19.874;2023-02-02T16:42:43;100342.94;;;3.46;80.32
62942;BME280;49042;47.318;19.874;2023-02-02T16:45:50;100336.34;;;3.51;79.84
62942;BME280;49042;47.318;19.874;2023-02-02T16:49:00;100347.47;;;3.35;81.56
62942;BME280;49042;47.318;19.874;2023-02-02T16:52:14;100359.03;;;3.42;80.93
62942;BME280;49042;47.318;19.874;2023-02-02T16:55:17;100365.59;;;3.37;81.62
62942;BME280;49042;47.318;19.874;2023-02-02T16:58:21;100367.62;;;3.27;82.48
62942;BME280;49042;47.318;19.874;2023-02-02T17:01:54;100369.00;;;3.36;82.01
62942;BME280;49042;47.318;19.874;2023-02-02T17:08:03;100392.63;;;3.28;82.75
62942;BME280;49042;47.318;19.874;2023-02-02T17:11:25;100401.75;;;3.23;82.91
62942;BME280;49042;47.318;19.874;2023-02-02T17:14:31;100405.59;;;3.30;82.45
62942;BME280;49042;47.318;19.874;2023-02-02T17:17:33;100408.69;;;3.24;82.92
62942;BME280;49042;47.318;19.874;2023-02-02T17:20:35;100416.13;;;3.19;83.46
62942;BME280;49042;47.318;19.874;2023-02-02T17:23:38;100419.78;;;3.23;82.90
62942;BME280;49042;47.318;19.874;2023-02-02T17:26:40;100420.88;;;3.27;82.81
62942;BME280;49042;47.318;19.874;2023-02-02T17:29:45;100417.81;;;3.19;83.50
62942;BME280;49042;47.318;19.874;2023-02-02T17:32:46;100427.22;;;3.18;83.73
62942;BME280;49042;47.318;19.874;2023-02-02T17:35:48;100421.22;;;3.04;85.17
62942;BME280;49042;47.318;19.874;2023-02-02T17:38:57;100425.59;;;3.05;85.29
62942;BME280;49042;47.318;19.874;2023-02-02T17:41:59;100434.13;;;3.04;85.39
62942;BME280;49042;47.318;19.874;2023-02-02T17:45:01;100434.81;;;3.02;85.93
62942;BME280;49042;47.318;19.874;2023-02-02T17:48:05;100444.06;;;2.98;86.17
62942;BME280;49042;47.318;19.874;2023-02-02T17:51:13;100439.59;;;2.95;86.65
62942;BME280;49042;47.318;19.874;2023-02-02T17:54:17;100451.59;;;2.95;86.56
62942;BME280;49042;47.318;19.874;2023-02-02T17:57:19;100454.37;;;2.98;86.18
62942;BME280;49042;47.318;19.874;2023-02-02T18:00:24;100451.19;;;3.02;86.67
62942;BME280;49042;47.318;19.874;2023-02-02T18:03:27;100466.28;;;2.96;86.96
62942;BME280;49042;47.318;19.874;2023-02-02T18:06:33;100467.94;;;2.95;86.55
62942;BME280;49042;47.318;19.874;2023-02-02T18:09:35;100471.44;;;2.96;86.67
62942;BME280;49042;47.318;19.874;2023-02-02T18:12:37;100470.41;;;2.94;86.97
62942;BME280;49042;47.318;19.874;2023-02-02T18:15:39;100484.78;;;2.90;87.44
62942;BME280;49042;47.318;19.874;2023-02-02T18:18:41;100482.03;;;2.87;87.69
62942;BME280;49042;47.318;19.874;2023-02-02T18:21:43;100483.12;;;2.91;87.53
62942;BME280;49042;47.318;19.874;2023-02-02T18:24:47;100486.59;;;2.91;87.42
62942;BME280;49042;47.318;19.874;2023-02-02T18:27:49;100490.47;;;2.84;88.23